createdAt,value
2017-12-02T12:33:16.444Z,21.75
2017-12-02T12:40:58.200Z,22.97
2017-12-02T12:43:25.731Z,19.17
2017-12-02T12:45:53.251Z,22.70
2017-12-02T12:48:20.751Z,23.73
2017-12-02T12:50:48.251Z,23.53
2017-12-02T12:53:17.364Z,22.50
2017-12-02T12:55:44.873Z,21.23
2017-12-02T12:58:12.463Z,21.37
2017-12-02T13:00:40.049Z,23.83
2017-12-02T13:03:08.266Z,20.60
2017-12-02T13:05:35.764Z,21.57
2017-12-02T13:08:03.287Z,20.07
2017-12-02T13:10:30.807Z,17.67
2017-12-02T13:12:58.302Z,19.63
2017-12-02T13:15:26.616Z,19.23
2017-12-02T13:17:54.123Z,18.90
2017-12-02T13:20:21.677Z,18.30
2017-12-02T13:22:49.231Z,19.27
2017-12-02T13:25:16.734Z,27.17
2017-12-02T13:27:44.236Z,21.43
2017-12-02T13:30:11.765Z,22.20
2017-12-02T13:32:39.267Z,20.97
2017-12-02T13:35:07.331Z,21.97
2017-12-02T13:37:34.871Z,19.97
2017-12-02T13:40:02.416Z,19.90
2017-12-02T13:42:29.915Z,21.63
2017-12-02T13:44:57.443Z,20.30
2017-12-02T13:47:24.963Z,21.17
2017-12-02T13:49:53.236Z,20.93
2017-12-02T13:52:21.519Z,21.13
2017-12-02T13:54:49.015Z,20.33
2017-12-02T13:57:16.524Z,20.83
2017-12-02T13:59:44.076Z,20.23
2017-12-02T14:02:12.354Z,15.53
2017-12-02T14:04:40.668Z,15.10
2017-12-02T14:07:08.216Z,13.80
2017-12-02T14:09:35.778Z,14.53
2017-12-02T14:12:03.307Z,14.20
2017-12-02T14:14:30.884Z,14.38
2017-12-02T14:16:58.427Z,14.50
2017-12-02T14:19:25.947Z,13.70
2017-12-02T14:21:54.272Z,14.90
2017-12-02T14:24:21.796Z,14.90
2017-12-02T14:26:49.324Z,14.20
2017-12-02T14:29:16.858Z,15.80
2017-12-02T14:31:44.364Z,12.63
2017-12-02T14:34:11.869Z,12.70
2017-12-02T14:36:39.410Z,15.40
2017-12-02T14:39:07.679Z,15.70
2017-12-02T14:41:35.959Z,16.20
2017-12-02T14:44:04.280Z,15.13
2017-12-02T14:46:31.859Z,17.43
2017-12-02T14:48:59.384Z,16.67
2017-12-02T14:51:26.951Z,16.98
2017-12-02T14:53:54.598Z,16.80
2017-12-02T14:56:22.103Z,16.80
2017-12-02T14:58:49.625Z,14.47
2017-12-02T15:01:17.626Z,18.55
2017-12-02T15:03:45.915Z,18.83
2017-12-02T15:06:25.743Z,19.48
2017-12-02T15:12:39.444Z,20.83
2017-12-02T15:15:07.730Z,19.77
2017-12-02T15:17:35.301Z,20.93
2017-12-02T15:20:02.823Z,21.33
2017-12-02T15:22:31.184Z,21.65
2017-12-02T15:24:58.692Z,21.47
2017-12-02T15:27:26.259Z,25.50
2017-12-02T15:29:53.821Z,24.00
2017-12-02T15:32:21.343Z,23.35
2017-12-02T15:34:48.871Z,23.60
2017-12-02T15:37:16.635Z,20.98
2017-12-02T15:39:44.197Z,23.90
2017-12-02T15:42:11.712Z,21.97
2017-12-02T15:44:39.223Z,21.33
2017-12-02T15:47:06.871Z,21.20
2017-12-02T15:49:34.475Z,21.83
2017-12-02T15:52:02.011Z,23.97
2017-12-02T15:54:29.608Z,22.77
2017-12-02T15:56:57.140Z,22.03
2017-12-02T15:59:25.412Z,21.57
2017-12-02T16:01:52.948Z,22.80
2017-12-02T16:04:20.511Z,25.66
2017-12-02T16:06:48.139Z,20.40
2017-12-02T16:09:17.187Z,25.35
2017-12-02T16:11:44.773Z,23.70
2017-12-02T16:14:12.307Z,24.33
2017-12-02T16:16:40.581Z,26.63
2017-12-02T16:19:08.883Z,24.67
2017-12-02T16:21:36.447Z,25.57
2017-12-02T16:24:03.953Z,27.00
2017-12-02T16:26:31.524Z,26.83
2017-12-02T16:28:59.031Z,25.20
2017-12-02T16:31:26.546Z,26.60
2017-12-02T16:33:54.956Z,26.07
2017-12-02T16:36:23.223Z,26.87
2017-12-02T16:38:51.304Z,27.17
2017-12-02T16:41:18.828Z,26.17
2017-12-02T16:43:47.128Z,23.90
2017-12-02T16:46:16.458Z,25.85
2017-12-02T16:48:44.037Z,24.77
2017-12-02T16:51:11.551Z,26.52
2017-12-02T16:53:39.055Z,26.67
2017-12-02T16:56:06.675Z,25.57
2017-12-02T16:58:34.183Z,25.63
2017-12-02T17:01:01.700Z,25.17
2017-12-02T17:03:29.231Z,27.50
2017-12-02T17:05:57.099Z,26.60
2017-12-02T17:08:24.643Z,27.55
2017-12-02T17:10:52.188Z,28.60
2017-12-02T17:13:20.467Z,26.62
2017-12-02T17:15:48.824Z,27.20
2017-12-02T17:18:17.302Z,24.85
2017-12-02T17:20:44.806Z,24.53
2017-12-02T17:23:15.547Z,27.53
2017-12-02T17:25:43.068Z,27.97
2017-12-02T17:28:11.343Z,24.47
2017-12-02T17:30:40.236Z,24.60
2017-12-02T17:33:08.640Z,24.80
2017-12-02T17:35:36.156Z,21.87
2017-12-02T17:38:03.677Z,21.50
2017-12-02T17:40:31.628Z,19.50
2017-12-02T17:42:59.165Z,19.53
2017-12-02T17:45:26.668Z,19.20
2017-12-02T17:47:54.187Z,20.83
2017-12-02T17:50:22.492Z,21.20
2017-12-02T17:52:49.991Z,22.23
2017-12-02T17:55:17.557Z,22.05
2017-12-02T17:57:45.112Z,23.30
2017-12-02T18:00:12.611Z,22.07
2017-12-02T18:02:40.155Z,23.50
2017-12-02T18:05:08.415Z,22.57
2017-12-02T18:07:36.536Z,19.73
2017-12-02T18:10:04.082Z,21.70
2017-12-02T18:12:31.581Z,22.43
2017-12-02T18:14:59.081Z,21.30
2017-12-02T18:17:27.373Z,23.30
2017-12-02T18:19:54.876Z,22.87
2017-12-02T18:22:23.152Z,20.60
2017-12-02T18:24:50.699Z,18.53
2017-12-02T18:27:18.201Z,20.57
2017-12-02T18:29:46.469Z,20.53
2017-12-02T18:32:16.517Z,19.90
2017-12-02T18:34:44.043Z,19.43
2017-12-02T18:37:12.307Z,19.50
2017-12-02T18:39:39.826Z,16.83
2017-12-02T18:42:07.511Z,18.30
2017-12-02T18:44:35.007Z,20.40
2017-12-02T18:47:02.559Z,19.90
2017-12-02T18:49:30.843Z,20.30
2017-12-02T18:51:58.352Z,19.20
2017-12-02T18:54:25.879Z,18.67
2017-12-02T18:56:53.379Z,18.47
2017-12-02T18:59:20.879Z,19.53
2017-12-02T19:01:48.403Z,19.40
2017-12-02T19:04:16.442Z,19.10
2017-12-02T19:06:43.952Z,18.40
2017-12-02T19:09:12.276Z,17.00
2017-12-02T19:11:39.798Z,17.07
2017-12-02T19:14:07.298Z,17.70
2017-12-02T19:16:34.859Z,17.73
2017-12-02T19:19:02.977Z,20.00
2017-12-02T19:21:30.479Z,21.27
2017-12-02T19:23:58.012Z,20.23
2017-12-02T19:26:25.545Z,18.20
2017-12-02T19:28:53.047Z,18.80
2017-12-02T19:31:20.606Z,19.20
2017-12-02T19:33:48.292Z,17.10
2017-12-02T19:36:16.464Z,17.70
2017-12-02T19:38:44.791Z,14.77
2017-12-02T19:41:12.312Z,15.63
2017-12-02T19:43:40.407Z,16.77
2017-12-02T19:46:07.938Z,17.67
2017-12-02T19:48:35.489Z,17.37
2017-12-02T19:51:03.764Z,16.83
2017-12-02T19:53:31.328Z,20.08
2017-12-02T19:55:58.848Z,21.17
2017-12-02T19:58:26.355Z,20.33
2017-12-02T20:00:54.639Z,19.13
2017-12-02T20:03:22.148Z,20.40
2017-12-02T20:05:49.697Z,19.20
2017-12-02T20:08:17.584Z,18.37
2017-12-02T20:10:45.134Z,19.00
2017-12-02T20:13:12.656Z,17.93
2017-12-02T20:15:40.967Z,16.23
2017-12-02T20:18:08.486Z,19.30
2017-12-02T20:20:36.206Z,18.17
2017-12-02T20:23:03.796Z,18.40
2017-12-02T20:25:31.352Z,18.13
2017-12-02T20:27:58.901Z,17.90
2017-12-02T20:30:26.440Z,18.92
2017-12-02T20:32:53.947Z,19.70
2017-12-02T20:35:22.455Z,19.17
2017-12-02T20:37:50.027Z,16.40
2017-12-02T20:40:17.584Z,16.83
2017-12-02T20:42:45.104Z,17.80
2017-12-02T20:45:12.688Z,17.70
2017-12-02T20:47:40.208Z,16.97
2017-12-02T20:50:07.708Z,17.30
2017-12-02T20:52:35.296Z,17.93
2017-12-02T20:55:02.813Z,16.47
2017-12-02T20:57:30.323Z,18.13
2017-12-02T20:59:57.871Z,19.12
2017-12-02T21:02:25.384Z,20.05
2017-12-02T21:04:52.904Z,22.17
2017-12-02T21:07:21.210Z,20.02
2017-12-02T21:09:48.719Z,18.80
2017-12-02T21:12:16.502Z,19.20
2017-12-02T21:14:44.031Z,19.90
2017-12-02T21:17:11.540Z,21.15
2017-12-02T21:19:39.299Z,20.90
2017-12-02T21:22:07.620Z,19.57
2017-12-02T21:24:35.152Z,21.00
2017-12-02T21:27:02.666Z,20.70
2017-12-02T21:29:30.195Z,20.33
2017-12-02T21:31:57.699Z,17.97
2017-12-02T21:34:25.217Z,18.67
2017-12-02T21:36:52.747Z,19.97
2017-12-02T21:39:20.247Z,16.67
2017-12-02T21:41:47.757Z,19.00
2017-12-02T21:44:17.159Z,18.33
2017-12-02T21:46:44.668Z,18.80
2017-12-02T21:49:14.619Z,19.80
2017-12-02T21:51:42.371Z,17.00
2017-12-02T21:54:10.640Z,18.10
2017-12-02T21:56:38.915Z,22.80
2017-12-02T21:59:07.247Z,21.55
2017-12-02T22:01:34.747Z,24.60
2017-12-02T22:04:02.247Z,21.13
2017-12-02T22:06:30.212Z,23.25
2017-12-02T22:08:58.407Z,21.53
2017-12-02T22:11:26.385Z,22.65
2017-12-02T22:13:53.904Z,21.90
2017-12-02T22:16:21.415Z,20.30
2017-12-02T22:18:48.918Z,20.50
2017-12-02T22:21:16.439Z,22.00
2017-12-02T22:23:43.943Z,23.30
2017-12-02T22:26:11.468Z,24.27
2017-12-02T22:28:39.776Z,21.67
2017-12-02T22:31:07.335Z,23.30
2017-12-02T22:33:34.839Z,21.00
2017-12-02T22:36:02.371Z,23.40
2017-12-02T22:38:29.879Z,23.10
2017-12-02T22:40:57.388Z,21.27
2017-12-02T22:43:24.938Z,22.90
2017-12-02T22:45:52.461Z,22.02
2017-12-02T22:48:19.967Z,22.17
2017-12-02T22:50:47.547Z,24.50
2017-12-02T22:53:16.407Z,21.85
2017-12-02T22:55:43.983Z,23.10
2017-12-02T22:58:11.516Z,20.40
2017-12-02T23:00:39.771Z,15.10
2017-12-02T23:03:07.336Z,14.40
2017-12-02T23:05:34.875Z,12.77
2017-12-02T23:08:03.152Z,11.63
2017-12-02T23:10:31.431Z,12.33
2017-12-02T23:12:59.743Z,12.03
2017-12-02T23:15:27.455Z,12.33
2017-12-02T23:17:55.732Z,12.30
2017-12-02T23:20:23.253Z,16.10
2017-12-02T23:22:50.771Z,19.50
2017-12-02T23:25:18.272Z,20.43
2017-12-02T23:27:45.802Z,22.20
2017-12-02T23:30:25.999Z,24.33
2017-12-02T23:36:23.450Z,23.43
2017-12-02T23:38:50.959Z,21.57
2017-12-02T23:43:45.992Z,20.70
2017-12-02T23:46:15.367Z,14.38
2017-12-02T23:48:43.220Z,11.73
2017-12-02T23:51:10.746Z,15.07
2017-12-02T23:53:38.259Z,15.37
2017-12-02T23:56:06.535Z,16.27
2017-12-02T23:58:34.852Z,15.10
